sensor_id;sensor_type;location;lat;lon;timestamp;P1;durP1;ratioP1;P2;durP2;ratioP2
46006;SDS011;31738;50.188;8.524;2022-09-12T00:01:17;16.98;;;8.88;;
46006;SDS011;31738;50.188;8.524;2022-09-12T00:03:54;15.73;;;8.48;;
46006;SDS011;31738;50.188;8.524;2022-09-12T00:06:32;15.07;;;8.48;;
46006;SDS011;31738;50.188;8.524;2022-09-12T00:09:07;12.85;;;8.35;;
46006;SDS011;31738;50.188;8.524;2022-09-12T00:11:37;13.82;;;8.90;;
46006;SDS011;31738;50.188;8.524;2022-09-12T00:14:05;15.25;;;9.38;;
46006;SDS011;31738;50.188;8.524;2022-09-12T00:16:37;13.65;;;8.35;;
46006;SDS011;31738;50.188;8.524;2022-09-12T00:19:10;19.30;;;8.60;;
46006;SDS011;31738;50.188;8.524;2022-09-12T00:21:39;13.85;;;8.18;;
46006;SDS011;31738;50.188;8.524;2022-09-12T00:24:10;14.10;;;7.68;;
46006;SDS011;31738;50.188;8.524;2022-09-12T00:26:36;13.60;;;8.50;;
46006;SDS011;31738;50.188;8.524;2022-09-12T00:29:02;13.23;;;8.00;;
46006;SDS011;31738;50.188;8.524;2022-09-12T00:31:31;12.02;;;7.75;;
46006;SDS011;31738;50.188;8.524;2022-09-12T00:33:57;13.93;;;8.10;;
46006;SDS011;31738;50.188;8.524;2022-09-12T00:36:25;14.13;;;8.48;;
46006;SDS011;31738;50.188;8.524;2022-09-12T00:38:52;14.63;;;7.55;;
46006;SDS011;31738;50.188;8.524;2022-09-12T00:41:21;12.65;;;7.35;;
46006;SDS011;31738;50.188;8.524;2022-09-12T00:43:51;17.02;;;8.02;;
46006;SDS011;31738;50.188;8.524;2022-09-12T00:46:24;15.18;;;8.38;;
46006;SDS011;31738;50.188;8.524;2022-09-12T00:49:14;17.10;;;8.02;;
46006;SDS011;31738;50.188;8.524;2022-09-12T00:51:51;12.05;;;7.72;;
46006;SDS011;31738;50.188;8.524;2022-09-12T00:54:20;13.07;;;7.07;;
46006;SDS011;31738;50.188;8.524;2022-09-12T00:56:50;14.30;;;8.25;;
46006;SDS011;31738;50.188;8.524;2022-09-12T00:59:21;14.38;;;8.38;;
46006;SDS011;31738;50.188;8.524;2022-09-12T01:01:52;12.73;;;8.23;;
46006;SDS011;31738;50.188;8.524;2022-09-12T01:04:19;14.30;;;8.38;;
46006;SDS011;31738;50.188;8.524;2022-09-12T01:06:52;14.70;;;8.00;;
46006;SDS011;31738;50.188;8.524;2022-09-12T01:09:20;15.98;;;7.80;;
46006;SDS011;31738;50.188;8.524;2022-09-12T01:11:48;12.48;;;8.15;;
46006;SDS011;31738;50.188;8.524;2022-09-12T01:14:16;11.32;;;7.28;;
46006;SDS011;31738;50.188;8.524;2022-09-12T01:16:48;13.48;;;8.00;;
46006;SDS011;31738;50.188;8.524;2022-09-12T01:25:30;16.52;;;8.55;;
46006;SDS011;31738;50.188;8.524;2022-09-12T01:33:34;15.48;;;8.45;;
46006;SDS011;31738;50.188;8.524;2022-09-12T01:39:11;16.88;;;9.23;;
46006;SDS011;31738;50.188;8.524;2022-09-12T01:42:17;14.15;;;8.05;;
46006;SDS011;31738;50.188;8.524;2022-09-12T01:44:55;17.17;;;8.98;;
46006;SDS011;31738;50.188;8.524;2022-09-12T01:47:37;14.27;;;8.60;;
46006;SDS011;31738;50.188;8.524;2022-09-12T01:50:22;13.57;;;7.68;;
46006;SDS011;31738;50.188;8.524;2022-09-12T01:52:56;14.68;;;8.32;;
46006;SDS011;31738;50.188;8.524;2022-09-12T01:55:31;13.05;;;8.18;;
46006;SDS011;31738;50.188;8.524;2022-09-12T01:58:05;15.57;;;8.85;;
46006;SDS011;31738;50.188;8.524;2022-09-12T02:00:34;13.88;;;8.35;;
46006;SDS011;31738;50.188;8.524;2022-09-12T02:05:42;16.20;;;8.95;;
46006;SDS011;31738;50.188;8.524;2022-09-12T02:08:13;16.38;;;8.95;;
46006;SDS011;31738;50.188;8.524;2022-09-12T02:10:44;12.60;;;7.72;;
46006;SDS011;31738;50.188;8.524;2022-09-12T02:13:32;14.65;;;8.38;;
46006;SDS011;31738;50.188;8.524;2022-09-12T02:16:07;18.50;;;8.80;;
46006;SDS011;31738;50.188;8.524;2022-09-12T02:18:36;15.82;;;9.10;;
46006;SDS011;31738;50.188;8.524;2022-09-12T02:21:04;13.27;;;8.55;;
46006;SDS011;31738;50.188;8.524;2022-09-12T02:23:31;16.52;;;9.10;;
46006;SDS011;31738;50.188;8.524;2022-09-12T02:26:04;18.95;;;9.43;;
46006;SDS011;31738;50.188;8.524;2022-09-12T02:28:37;19.45;;;10.15;;
46006;SDS011;31738;50.188;8.524;2022-09-12T02:31:14;17.92;;;9.68;;
46006;SDS011;31738;50.188;8.524;2022-09-12T02:33:55;19.33;;;10.05;;
46006;SDS011;31738;50.188;8.524;2022-09-12T02:36:36;22.77;;;10.05;;
46006;SDS011;31738;50.188;8.524;2022-09-12T02:39:10;21.38;;;10.93;;
46006;SDS011;31738;50.188;8.524;2022-09-12T02:41:35;20.30;;;10.70;;
46006;SDS011;31738;50.188;8.524;2022-09-12T02:44:01;21.50;;;11.27;;
46006;SDS011;31738;50.188;8.524;2022-09-12T02:46:32;19.75;;;10.18;;
46006;SDS011;31738;50.188;8.524;2022-09-12T02:49:05;22.13;;;11.40;;
46006;SDS011;31738;50.188;8.524;2022-09-12T02:51:30;17.75;;;10.95;;
46006;SDS011;31738;50.188;8.524;2022-09-12T02:53:56;18.52;;;10.32;;
46006;SDS011;31738;50.188;8.524;2022-09-12T02:56:22;18.92;;;10.40;;
46006;SDS011;31738;50.188;8.524;2022-09-12T02:58:51;19.73;;;9.73;;
46006;SDS011;31738;50.188;8.524;2022-09-12T03:01:26;21.08;;;10.20;;
46006;SDS011;31738;50.188;8.524;2022-09-12T03:12:07;18.35;;;9.82;;
46006;SDS011;31738;50.188;8.524;2022-09-12T03:15:02;18.33;;;9.70;;
46006;SDS011;31738;50.188;8.524;2022-09-12T03:18:03;12.77;;;7.97;;
46006;SDS011;31738;50.188;8.524;2022-09-12T03:23:32;16.13;;;8.75;;
46006;SDS011;31738;50.188;8.524;2022-09-12T03:26:05;18.52;;;9.20;;
46006;SDS011;31738;50.188;8.524;2022-09-12T03:28:37;21.05;;;9.75;;
46006;SDS011;31738;50.188;8.524;2022-09-12T03:31:11;16.77;;;9.45;;
46006;SDS011;31738;50.188;8.524;2022-09-12T03:33:39;19.25;;;9.70;;
46006;SDS011;31738;50.188;8.524;2022-09-12T03:36:04;20.42;;;10.07;;
46006;SDS011;31738;50.188;8.524;2022-09-12T03:38:30;16.90;;;9.20;;
46006;SDS011;31738;50.188;8.524;2022-09-12T03:40:55;19.88;;;9.48;;
46006;SDS011;31738;50.188;8.524;2022-09-12T03:43:21;21.88;;;9.88;;
46006;SDS011;31738;50.188;8.524;2022-09-12T03:45:48;20.38;;;10.10;;
46006;SDS011;31738;50.188;8.524;2022-09-12T03:48:16;26.02;;;11.52;;
46006;SDS011;31738;50.188;8.524;2022-09-12T03:50:41;23.13;;;10.73;;
46006;SDS011;31738;50.188;8.524;2022-09-12T03:53:06;23.20;;;11.63;;
46006;SDS011;31738;50.188;8.524;2022-09-12T03:55:32;22.67;;;11.52;;
46006;SDS011;31738;50.188;8.524;2022-09-12T03:57:57;20.67;;;10.93;;
46006;SDS011;31738;50.188;8.524;2022-09-12T04:00:23;24.30;;;13.07;;
46006;SDS011;31738;50.188;8.524;2022-09-12T04:02:52;25.23;;;12.68;;
46006;SDS011;31738;50.188;8.524;2022-09-12T04:05:19;31.23;;;13.48;;
46006;SDS011;31738;50.188;8.524;2022-09-12T04:07:44;24.35;;;11.50;;
46006;SDS011;31738;50.188;8.524;2022-09-12T04:10:09;26.98;;;13.07;;
46006;SDS011;31738;50.188;8.524;2022-09-12T04:12:35;25.30;;;13.35;;
46006;SDS011;31738;50.188;8.524;2022-09-12T04:15:00;21.58;;;11.68;;
46006;SDS011;31738;50.188;8.524;2022-09-12T04:17:26;21.65;;;11.65;;
46006;SDS011;31738;50.188;8.524;2022-09-12T04:19:51;22.17;;;10.95;;
46006;SDS011;31738;50.188;8.524;2022-09-12T04:22:17;20.13;;;10.52;;
46006;SDS011;31738;50.188;8.524;2022-09-12T04:24:42;20.40;;;10.57;;
46006;SDS011;31738;50.188;8.524;2022-09-12T04:27:08;18.55;;;10.85;;
46006;SDS011;31738;50.188;8.524;2022-09-12T04:29:33;19.80;;;10.27;;
46006;SDS011;31738;50.188;8.524;2022-09-12T04:31:59;22.98;;;10.55;;
46006;SDS011;31738;50.188;8.524;2022-09-12T04:34:25;20.98;;;11.38;;
46006;SDS011;31738;50.188;8.524;2022-09-12T04:36:50;21.90;;;11.57;;
46006;SDS011;31738;50.188;8.524;2022-09-12T04:39:16;24.70;;;11.80;;
46006;SDS011;31738;50.188;8.524;2022-09-12T04:41:41;23.25;;;11.32;;
46006;SDS011;31738;50.188;8.524;2022-09-12T04:44:09;26.85;;;12.85;;
46006;SDS011;31738;50.188;8.524;2022-09-12T04:46:37;21.70;;;12.15;;
46006;SDS011;31738;50.188;8.524;2022-09-12T04:49:04;24.75;;;11.45;;
46006;SDS011;31738;50.188;8.524;2022-09-12T04:51:31;22.58;;;11.85;;
46006;SDS011;31738;50.188;8.524;2022-09-12T04:54:02;25.55;;;12.00;;
46006;SDS011;31738;50.188;8.524;2022-09-12T04:56:31;24.60;;;11.77;;
46006;SDS011;31738;50.188;8.524;2022-09-12T04:58:58;20.77;;;11.15;;
46006;SDS011;31738;50.188;8.524;2022-09-12T05:01:25;21.42;;;11.75;;
46006;SDS011;31738;50.188;8.524;2022-09-12T05:03:52;23.10;;;12.23;;
46006;SDS011;31738;50.188;8.524;2022-09-12T05:06:22;23.02;;;11.90;;
46006;SDS011;31738;50.188;8.524;2022-09-12T05:08:49;21.83;;;11.63;;
46006;SDS011;31738;50.188;8.524;2022-09-12T05:11:16;23.20;;;12.07;;
46006;SDS011;31738;50.188;8.524;2022-09-12T05:13:46;23.63;;;11.93;;
46006;SDS011;31738;50.188;8.524;2022-09-12T05:16:12;22.75;;;11.45;;
46006;SDS011;31738;50.188;8.524;2022-09-12T05:18:39;19.75;;;11.10;;
46006;SDS011;31738;50.188;8.524;2022-09-12T05:21:06;21.95;;;11.20;;
46006;SDS011;31738;50.188;8.524;2022-09-12T05:23:34;18.95;;;10.75;;
46006;SDS011;31738;50.188;8.524;2022-09-12T05:26:01;19.42;;;11.38;;
46006;SDS011;31738;50.188;8.524;2022-09-12T05:28:28;20.20;;;10.68;;
46006;SDS011;31738;50.188;8.524;2022-09-12T05:33:40;20.98;;;10.35;;
46006;SDS011;31738;50.188;8.524;2022-09-12T05:36:09;23.70;;;10.98;;
46006;SDS011;31738;50.188;8.524;2022-09-12T05:38:39;20.38;;;11.27;;
46006;SDS011;31738;50.188;8.524;2022-09-12T05:41:14;23.75;;;11.80;;
46006;SDS011;31738;50.188;8.524;2022-09-12T05:43:42;23.92;;;11.88;;
46006;SDS011;31738;50.188;8.524;2022-09-12T05:46:13;20.00;;;11.07;;
46006;SDS011;31738;50.188;8.524;2022-09-12T05:48:40;23.58;;;11.57;;
46006;SDS011;31738;50.188;8.524;2022-09-12T05:51:13;26.77;;;12.05;;
46006;SDS011;31738;50.188;8.524;2022-09-12T05:53:44;24.27;;;12.02;;
46006;SDS011;31738;50.188;8.524;2022-09-12T05:56:15;24.08;;;11.75;;
46006;SDS011;31738;50.188;8.524;2022-09-12T05:58:45;23.25;;;10.95;;
46006;SDS011;31738;50.188;8.524;2022-09-12T06:01:13;22.58;;;11.57;;
46006;SDS011;31738;50.188;8.524;2022-09-12T06:03:41;23.02;;;12.30;;
46006;SDS011;31738;50.188;8.524;2022-09-12T06:06:11;20.80;;;11.00;;
46006;SDS011;31738;50.188;8.524;2022-09-12T06:08:38;22.25;;;11.43;;
46006;SDS011;31738;50.188;8.524;2022-09-12T06:11:06;21.27;;;10.57;;
46006;SDS011;31738;50.188;8.524;2022-09-12T06:13:34;20.75;;;11.30;;
46006;SDS011;31738;50.188;8.524;2022-09-12T06:16:04;19.45;;;10.38;;
46006;SDS011;31738;50.188;8.524;2022-09-12T06:18:34;19.35;;;11.60;;
46006;SDS011;31738;50.188;8.524;2022-09-12T06:21:05;18.67;;;10.00;;
46006;SDS011;31738;50.188;8.524;2022-09-12T06:23:32;18.50;;;9.60;;
46006;SDS011;31738;50.188;8.524;2022-09-12T06:25:58;15.75;;;9.32;;
46006;SDS011;31738;50.188;8.524;2022-09-12T06:28:24;14.93;;;8.75;;
46006;SDS011;31738;50.188;8.524;2022-09-12T06:30:50;14.45;;;8.52;;
46006;SDS011;31738;50.188;8.524;2022-09-12T06:33:16;14.02;;;8.35;;
46006;SDS011;31738;50.188;8.524;2022-09-12T06:35:42;13.48;;;8.93;;
46006;SDS011;31738;50.188;8.524;2022-09-12T06:38:08;16.33;;;8.68;;
46006;SDS011;31738;50.188;8.524;2022-09-12T06:40:34;12.93;;;8.32;;
46006;SDS011;31738;50.188;8.524;2022-09-12T06:43:05;16.50;;;8.40;;
46006;SDS011;31738;50.188;8.524;2022-09-12T06:45:31;12.30;;;7.30;;
46006;SDS011;31738;50.188;8.524;2022-09-12T06:47:56;14.65;;;7.72;;
46006;SDS011;31738;50.188;8.524;2022-09-12T06:50:22;12.60;;;7.15;;
46006;SDS011;31738;50.188;8.524;2022-09-12T06:52:48;13.25;;;7.65;;
46006;SDS011;31738;50.188;8.524;2022-09-12T06:55:15;11.25;;;7.57;;
46006;SDS011;31738;50.188;8.524;2022-09-12T06:57:41;12.70;;;7.68;;
46006;SDS011;31738;50.188;8.524;2022-09-12T07:00:08;12.85;;;7.60;;
46006;SDS011;31738;50.188;8.524;2022-09-12T07:02:35;13.82;;;7.63;;
46006;SDS011;31738;50.188;8.524;2022-09-12T07:05:00;13.65;;;7.70;;
46006;SDS011;31738;50.188;8.524;2022-09-12T07:07:26;12.10;;;7.30;;
46006;SDS011;31738;50.188;8.524;2022-09-12T07:09:51;12.30;;;7.50;;
46006;SDS011;31738;50.188;8.524;2022-09-12T07:12:17;11.82;;;7.25;;
46006;SDS011;31738;50.188;8.524;2022-09-12T07:14:42;10.40;;;7.28;;
46006;SDS011;31738;50.188;8.524;2022-09-12T07:17:07;13.00;;;7.85;;
46006;SDS011;31738;50.188;8.524;2022-09-12T07:19:33;16.45;;;7.50;;
46006;SDS011;31738;50.188;8.524;2022-09-12T07:21:59;13.13;;;8.07;;
46006;SDS011;31738;50.188;8.524;2022-09-12T07:24:25;13.18;;;7.63;;
46006;SDS011;31738;50.188;8.524;2022-09-12T07:26:50;14.32;;;9.00;;
46006;SDS011;31738;50.188;8.524;2022-09-12T07:29:16;19.67;;;9.48;;
46006;SDS011;31738;50.188;8.524;2022-09-12T07:31:42;14.70;;;8.32;;
46006;SDS011;31738;50.188;8.524;2022-09-12T07:34:07;14.40;;;9.32;;
46006;SDS011;31738;50.188;8.524;2022-09-12T07:36:33;19.10;;;9.95;;
46006;SDS011;31738;50.188;8.524;2022-09-12T07:38:59;16.10;;;10.25;;
46006;SDS011;31738;50.188;8.524;2022-09-12T07:41:25;15.20;;;9.50;;
46006;SDS011;31738;50.188;8.524;2022-09-12T07:43:53;14.65;;;9.35;;
46006;SDS011;31738;50.188;8.524;2022-09-12T07:46:20;14.57;;;9.73;;
46006;SDS011;31738;50.188;8.524;2022-09-12T07:48:48;18.05;;;10.02;;
46006;SDS011;31738;50.188;8.524;2022-09-12T07:51:15;15.60;;;9.90;;
46006;SDS011;31738;50.188;8.524;2022-09-12T07:53:41;17.98;;;10.52;;
46006;SDS011;31738;50.188;8.524;2022-09-12T07:56:08;15.18;;;10.00;;
46006;SDS011;31738;50.188;8.524;2022-09-12T07:58:38;15.73;;;9.85;;
46006;SDS011;31738;50.188;8.524;2022-09-12T08:01:14;15.18;;;9.20;;
46006;SDS011;31738;50.188;8.524;2022-09-12T08:03:56;16.52;;;9.45;;
46006;SDS011;31738;50.188;8.524;2022-09-12T08:06:55;17.05;;;8.98;;
46006;SDS011;31738;50.188;8.524;2022-09-12T08:09:24;16.23;;;9.45;;
46006;SDS011;31738;50.188;8.524;2022-09-12T08:11:58;15.73;;;9.18;;
46006;SDS011;31738;50.188;8.524;2022-09-12T08:14:35;14.43;;;9.70;;
46006;SDS011;31738;50.188;8.524;2022-09-12T08:17:04;15.95;;;9.60;;
46006;SDS011;31738;50.188;8.524;2022-09-12T08:19:46;15.90;;;9.13;;
46006;SDS011;31738;50.188;8.524;2022-09-12T08:22:12;14.95;;;9.55;;
46006;SDS011;31738;50.188;8.524;2022-09-12T08:24:54;18.45;;;9.93;;
46006;SDS011;31738;50.188;8.524;2022-09-12T08:27:30;15.50;;;9.77;;
46006;SDS011;31738;50.188;8.524;2022-09-12T08:33:07;15.27;;;10.05;;
46006;SDS011;31738;50.188;8.524;2022-09-12T08:35:40;17.63;;;10.48;;
46006;SDS011;31738;50.188;8.524;2022-09-12T08:38:26;16.20;;;10.07;;
46006;SDS011;31738;50.188;8.524;2022-09-12T08:41:02;19.40;;;10.63;;
46006;SDS011;31738;50.188;8.524;2022-09-12T08:55:05;13.18;;;8.27;;
46006;SDS011;31738;50.188;8.524;2022-09-12T08:58:09;13.30;;;8.82;;
46006;SDS011;31738;50.188;8.524;2022-09-12T09:00:41;15.55;;;9.18;;
46006;SDS011;31738;50.188;8.524;2022-09-12T09:07:05;18.15;;;10.05;;
46006;SDS011;31738;50.188;8.524;2022-09-12T09:10:02;14.15;;;8.50;;
46006;SDS011;31738;50.188;8.524;2022-09-12T09:12:39;13.32;;;8.20;;
46006;SDS011;31738;50.188;8.524;2022-09-12T09:18:35;15.27;;;8.73;;
46006;SDS011;31738;50.188;8.524;2022-09-12T09:21:17;13.82;;;9.07;;
46006;SDS011;31738;50.188;8.524;2022-09-12T09:24:10;15.95;;;9.73;;
46006;SDS011;31738;50.188;8.524;2022-09-12T09:27:09;18.40;;;9.68;;
46006;SDS011;31738;50.188;8.524;2022-09-12T09:30:15;13.77;;;9.15;;
46006;SDS011;31738;50.188;8.524;2022-09-12T09:32:58;18.35;;;9.80;;
46006;SDS011;31738;50.188;8.524;2022-09-12T09:35:44;16.40;;;9.18;;
46006;SDS011;31738;50.188;8.524;2022-09-12T09:44:39;13.77;;;7.95;;
46006;SDS011;31738;50.188;8.524;2022-09-12T09:47:31;13.57;;;8.57;;
46006;SDS011;31738;50.188;8.524;2022-09-12T09:50:13;15.27;;;9.00;;
46006;SDS011;31738;50.188;8.524;2022-09-12T09:52:44;13.02;;;8.80;;
46006;SDS011;31738;50.188;8.524;2022-09-12T09:55:17;12.48;;;8.32;;
46006;SDS011;31738;50.188;8.524;2022-09-12T09:57:57;16.60;;;9.75;;
46006;SDS011;31738;50.188;8.524;2022-09-12T10:00:34;14.52;;;8.65;;
46006;SDS011;31738;50.188;8.524;2022-09-12T10:03:31;15.80;;;9.38;;
46006;SDS011;31738;50.188;8.524;2022-09-12T10:09:02;12.68;;;8.15;;
46006;SDS011;31738;50.188;8.524;2022-09-12T10:11:36;11.32;;;7.82;;
46006;SDS011;31738;50.188;8.524;2022-09-12T10:17:20;14.73;;;9.18;;
46006;SDS011;31738;50.188;8.524;2022-09-12T10:20:28;11.48;;;7.38;;
46006;SDS011;31738;50.188;8.524;2022-09-12T10:23:37;14.52;;;7.57;;
46006;SDS011;31738;50.188;8.524;2022-09-12T10:26:47;12.55;;;8.13;;
46006;SDS011;31738;50.188;8.524;2022-09-12T10:29:21;17.75;;;9.60;;
46006;SDS011;31738;50.188;8.524;2022-09-12T10:32:02;16.20;;;9.63;;
46006;SDS011;31738;50.188;8.524;2022-09-12T10:34:41;14.27;;;8.25;;
46006;SDS011;31738;50.188;8.524;2022-09-12T10:40:20;12.70;;;7.35;;
46006;SDS011;31738;50.188;8.524;2022-09-12T10:43:27;13.93;;;8.18;;
46006;SDS011;31738;50.188;8.524;2022-09-12T10:48:46;12.30;;;7.15;;
46006;SDS011;31738;50.188;8.524;2022-09-12T10:54:09;11.38;;;6.80;;
46006;SDS011;31738;50.188;8.524;2022-09-12T11:02:31;13.73;;;8.07;;
46006;SDS011;31738;50.188;8.524;2022-09-12T11:05:19;12.75;;;7.60;;
46006;SDS011;31738;50.188;8.524;2022-09-12T11:13:49;12.35;;;7.68;;
46006;SDS011;31738;50.188;8.524;2022-09-12T11:16:54;11.02;;;7.35;;
46006;SDS011;31738;50.188;8.524;2022-09-12T11:30:54;12.27;;;6.78;;
46006;SDS011;31738;50.188;8.524;2022-09-12T11:33:49;10.23;;;6.90;;
46006;SDS011;31738;50.188;8.524;2022-09-12T11:39:39;12.40;;;8.13;;
46006;SDS011;31738;50.188;8.524;2022-09-12T11:42:32;14.07;;;7.95;;
46006;SDS011;31738;50.188;8.524;2022-09-12T11:45:21;16.33;;;8.30;;
46006;SDS011;31738;50.188;8.524;2022-09-12T11:47:58;12.15;;;7.38;;
46006;SDS011;31738;50.188;8.524;2022-09-12T11:50:37;13.68;;;7.85;;
46006;SDS011;31738;50.188;8.524;2022-09-12T11:53:16;14.45;;;8.20;;
46006;SDS011;31738;50.188;8.524;2022-09-12T11:55:50;13.63;;;7.88;;
46006;SDS011;31738;50.188;8.524;2022-09-12T11:58:22;8.70;;;6.18;;
46006;SDS011;31738;50.188;8.524;2022-09-12T12:01:26;10.48;;;6.95;;
46006;SDS011;31738;50.188;8.524;2022-09-12T12:04:07;10.63;;;7.50;;
46006;SDS011;31738;50.188;8.524;2022-09-12T12:06:54;13.35;;;7.03;;
46006;SDS011;31738;50.188;8.524;2022-09-12T12:09:32;10.25;;;6.80;;
46006;SDS011;31738;50.188;8.524;2022-09-12T12:12:26;9.30;;;5.97;;
46006;SDS011;31738;50.188;8.524;2022-09-12T12:15:25;9.73;;;6.85;;
46006;SDS011;31738;50.188;8.524;2022-09-12T12:18:06;8.32;;;6.07;;
46006;SDS011;31738;50.188;8.524;2022-09-12T12:20:48;7.65;;;5.85;;
46006;SDS011;31738;50.188;8.524;2022-09-12T12:23:28;11.15;;;7.03;;
46006;SDS011;31738;50.188;8.524;2022-09-12T12:26:04;8.25;;;5.78;;
46006;SDS011;31738;50.188;8.524;2022-09-12T12:31:24;9.13;;;6.43;;
46006;SDS011;31738;50.188;8.524;2022-09-12T12:34:06;9.98;;;6.28;;
46006;SDS011;31738;50.188;8.524;2022-09-12T12:40:20;8.38;;;6.10;;
46006;SDS011;31738;50.188;8.524;2022-09-12T12:43:26;8.25;;;5.97;;
46006;SDS011;31738;50.188;8.524;2022-09-12T12:46:03;8.52;;;5.60;;
46006;SDS011;31738;50.188;8.524;2022-09-12T12:48:45;7.72;;;5.88;;
46006;SDS011;31738;50.188;8.524;2022-09-12T12:57:04;7.32;;;5.88;;
46006;SDS011;31738;50.188;8.524;2022-09-12T12:59:49;6.75;;;5.20;;
46006;SDS011;31738;50.188;8.524;2022-09-12T13:02:28;7.72;;;5.53;;
46006;SDS011;31738;50.188;8.524;2022-09-12T13:05:18;8.88;;;5.75;;
46006;SDS011;31738;50.188;8.524;2022-09-12T13:08:07;10.00;;;5.97;;
46006;SDS011;31738;50.188;8.524;2022-09-12T13:10:38;8.50;;;4.97;;
46006;SDS011;31738;50.188;8.524;2022-09-12T13:13:46;8.68;;;5.10;;
46006;SDS011;31738;50.188;8.524;2022-09-12T13:16:38;7.75;;;5.20;;
46006;SDS011;31738;50.188;8.524;2022-09-12T13:19:27;7.40;;;5.65;;
46006;SDS011;31738;50.188;8.524;2022-09-12T13:22:07;6.55;;;4.90;;
46006;SDS011;31738;50.188;8.524;2022-09-12T13:24:47;6.47;;;4.72;;
46006;SDS011;31738;50.188;8.524;2022-09-12T13:27:19;8.40;;;5.10;;
46006;SDS011;31738;50.188;8.524;2022-09-12T13:32:48;6.18;;;4.28;;
46006;SDS011;31738;50.188;8.524;2022-09-12T13:38:45;6.93;;;4.47;;
46006;SDS011;31738;50.188;8.524;2022-09-12T13:44:02;5.40;;;4.38;;
46006;SDS011;31738;50.188;8.524;2022-09-12T13:46:42;5.25;;;4.50;;
46006;SDS011;31738;50.188;8.524;2022-09-12T13:52:13;6.65;;;4.13;;
46006;SDS011;31738;50.188;8.524;2022-09-12T13:54:42;6.43;;;4.85;;
46006;SDS011;31738;50.188;8.524;2022-09-12T14:02:46;5.70;;;4.40;;
46006;SDS011;31738;50.188;8.524;2022-09-12T14:05:23;6.80;;;4.28;;
46006;SDS011;31738;50.188;8.524;2022-09-12T14:08:13;4.72;;;4.03;;
46006;SDS011;31738;50.188;8.524;2022-09-12T14:10:52;6.03;;;4.60;;
46006;SDS011;31738;50.188;8.524;2022-09-12T14:13:27;6.47;;;4.03;;
46006;SDS011;31738;50.188;8.524;2022-09-12T14:15:56;6.47;;;3.97;;
46006;SDS011;31738;50.188;8.524;2022-09-12T14:18:31;8.70;;;4.30;;
46006;SDS011;31738;50.188;8.524;2022-09-12T14:21:04;4.72;;;3.60;;
46006;SDS011;31738;50.188;8.524;2022-09-12T14:23:38;6.70;;;4.10;;
46006;SDS011;31738;50.188;8.524;2022-09-12T14:26:19;5.38;;;4.00;;
46006;SDS011;31738;50.188;8.524;2022-09-12T14:28:55;6.28;;;4.60;;
46006;SDS011;31738;50.188;8.524;2022-09-12T14:31:28;7.22;;;4.60;;
46006;SDS011;31738;50.188;8.524;2022-09-12T14:36:51;6.32;;;4.07;;
46006;SDS011;31738;50.188;8.524;2022-09-12T14:42:15;5.75;;;4.20;;
46006;SDS011;31738;50.188;8.524;2022-09-12T14:44:56;5.97;;;4.15;;
46006;SDS011;31738;50.188;8.524;2022-09-12T14:47:27;5.78;;;4.20;;
46006;SDS011;31738;50.188;8.524;2022-09-12T14:49:59;7.13;;;4.20;;
46006;SDS011;31738;50.188;8.524;2022-09-12T14:52:26;6.63;;;4.35;;
46006;SDS011;31738;50.188;8.524;2022-09-12T14:55:01;5.20;;;4.10;;
46006;SDS011;31738;50.188;8.524;2022-09-12T14:57:45;7.30;;;3.75;;
46006;SDS011;31738;50.188;8.524;2022-09-12T15:02:43;6.28;;;3.67;;
46006;SDS011;31738;50.188;8.524;2022-09-12T15:07:53;6.10;;;3.72;;
46006;SDS011;31738;50.188;8.524;2022-09-12T15:10:21;5.40;;;3.97;;
46006;SDS011;31738;50.188;8.524;2022-09-12T15:12:49;7.03;;;4.30;;
46006;SDS011;31738;50.188;8.524;2022-09-12T15:15:51;6.70;;;4.00;;
46006;SDS011;31738;50.188;8.524;2022-09-12T15:18:22;4.63;;;3.67;;
46006;SDS011;31738;50.188;8.524;2022-09-12T15:20:51;5.68;;;3.88;;
46006;SDS011;31738;50.188;8.524;2022-09-12T15:23:41;5.13;;;4.05;;
46006;SDS011;31738;50.188;8.524;2022-09-12T15:26:12;6.85;;;4.38;;
46006;SDS011;31738;50.188;8.524;2022-09-12T15:28:55;5.60;;;3.85;;
46006;SDS011;31738;50.188;8.524;2022-09-12T15:31:33;5.28;;;4.05;;
46006;SDS011;31738;50.188;8.524;2022-09-12T15:34:09;5.05;;;3.70;;
46006;SDS011;31738;50.188;8.524;2022-09-12T15:36:35;5.50;;;4.25;;
46006;SDS011;31738;50.188;8.524;2022-09-12T15:39:00;7.22;;;3.80;;
46006;SDS011;31738;50.188;8.524;2022-09-12T15:41:36;6.70;;;4.03;;
46006;SDS011;31738;50.188;8.524;2022-09-12T15:44:13;6.18;;;4.20;;
46006;SDS011;31738;50.188;8.524;2022-09-12T15:46:47;6.60;;;4.40;;
46006;SDS011;31738;50.188;8.524;2022-09-12T15:49:13;9.23;;;4.43;;
46006;SDS011;31738;50.188;8.524;2022-09-12T15:51:47;7.78;;;4.35;;
46006;SDS011;31738;50.188;8.524;2022-09-12T15:54:15;5.00;;;3.97;;
46006;SDS011;31738;50.188;8.524;2022-09-12T15:56:46;5.65;;;4.28;;
46006;SDS011;31738;50.188;8.524;2022-09-12T15:59:12;4.07;;;3.40;;
46006;SDS011;31738;50.188;8.524;2022-09-12T16:01:40;5.95;;;3.97;;
46006;SDS011;31738;50.188;8.524;2022-09-12T16:04:18;6.53;;;4.30;;
46006;SDS011;31738;50.188;8.524;2022-09-12T16:06:57;5.80;;;3.47;;
46006;SDS011;31738;50.188;8.524;2022-09-12T16:09:38;7.57;;;3.90;;
46006;SDS011;31738;50.188;8.524;2022-09-12T16:12:21;8.02;;;4.05;;
46006;SDS011;31738;50.188;8.524;2022-09-12T16:14:50;5.00;;;3.60;;
46006;SDS011;31738;50.188;8.524;2022-09-12T16:17:15;6.82;;;3.90;;
46006;SDS011;31738;50.188;8.524;2022-09-12T16:19:50;4.90;;;3.92;;
46006;SDS011;31738;50.188;8.524;2022-09-12T16:22:15;4.60;;;3.90;;
46006;SDS011;31738;50.188;8.524;2022-09-12T16:24:41;9.13;;;3.72;;
46006;SDS011;31738;50.188;8.524;2022-09-12T16:27:11;5.25;;;3.72;;
46006;SDS011;31738;50.188;8.524;2022-09-12T16:29:53;5.97;;;3.78;;
46006;SDS011;31738;50.188;8.524;2022-09-12T16:32:23;5.00;;;4.20;;
46006;SDS011;31738;50.188;8.524;2022-09-12T16:35:01;6.38;;;4.00;;
46006;SDS011;31738;50.188;8.524;2022-09-12T16:37:31;4.70;;;3.90;;
46006;SDS011;31738;50.188;8.524;2022-09-12T16:40:11;7.93;;;4.65;;
46006;SDS011;31738;50.188;8.524;2022-09-12T16:42:49;7.22;;;4.70;;
46006;SDS011;31738;50.188;8.524;2022-09-12T16:45:34;5.93;;;4.22;;
46006;SDS011;31738;50.188;8.524;2022-09-12T16:48:06;5.22;;;4.20;;
46006;SDS011;31738;50.188;8.524;2022-09-12T16:51:04;6.00;;;4.13;;
46006;SDS011;31738;50.188;8.524;2022-09-12T16:53:45;5.53;;;4.00;;
46006;SDS011;31738;50.188;8.524;2022-09-12T16:56:17;5.72;;;4.35;;
46006;SDS011;31738;50.188;8.524;2022-09-12T16:58:48;7.05;;;5.13;;
46006;SDS011;31738;50.188;8.524;2022-09-12T17:01:23;8.65;;;5.90;;
46006;SDS011;31738;50.188;8.524;2022-09-12T17:04:06;6.47;;;4.75;;
46006;SDS011;31738;50.188;8.524;2022-09-12T17:06:42;6.50;;;4.40;;
46006;SDS011;31738;50.188;8.524;2022-09-12T17:09:22;6.45;;;4.20;;
46006;SDS011;31738;50.188;8.524;2022-09-12T17:12:04;6.60;;;4.40;;
46006;SDS011;31738;50.188;8.524;2022-09-12T17:14:52;6.20;;;4.15;;
46006;SDS011;31738;50.188;8.524;2022-09-12T17:17:26;7.43;;;4.45;;
46006;SDS011;31738;50.188;8.524;2022-09-12T17:20:03;6.00;;;4.28;;
46006;SDS011;31738;50.188;8.524;2022-09-12T17:22:39;5.25;;;4.10;;
46006;SDS011;31738;50.188;8.524;2022-09-12T17:25:10;6.03;;;4.10;;
46006;SDS011;31738;50.188;8.524;2022-09-12T17:28:05;6.30;;;4.57;;
46006;SDS011;31738;50.188;8.524;2022-09-12T17:31:06;6.68;;;4.05;;
46006;SDS011;31738;50.188;8.524;2022-09-12T17:33:46;4.95;;;4.30;;
46006;SDS011;31738;50.188;8.524;2022-09-12T17:36:20;7.30;;;4.18;;
46006;SDS011;31738;50.188;8.524;2022-09-12T17:39:02;6.20;;;3.78;;